Crockett, Kentucky
Current Conditions -  °F | °C
As of 5:55 AM on Thursday 27 Nov 2014 (Local Time) from KSJS Reporting Station
Overcast Overcast  
Wind Chill: 33°   Ceiling: 6500
Heat Index: 33°   Visibility: 10mi
Dew Point: 29°   Wind: 3mph
Humidity: 87%   Direction: 350°N
Pressure: 30.06"   Gusts: NA
Location:  37.99°N, 83.09°W
Report Text: KSJS 271055Z AUTO 35003KT 10SM SCT011 OVC065 01/M01 A3006 RMK AO2 T00051015
Loading
Personal Weather Stations






























Interactive Weather Map New forecast layout! Learn more

10-Day Weather Forecast

Advertisements
Track Severe Weather on mobile